sensor_id;sensor_type;location;lat;lon;timestamp;pressure;altitude;pressure_sealevel;temperature;humidity
77227;BME280;66234;47.642;19.144;2023-05-14T00:02:22;100806.56;;;10.88;81.41
77227;BME280;66234;47.642;19.144;2023-05-14T00:05:25;100813.34;;;10.84;81.69
77227;BME280;66234;47.642;19.144;2023-05-14T00:08:28;100815.13;;;10.77;82.11
77227;BME280;66234;47.642;19.144;2023-05-14T00:11:30;100808.09;;;10.69;82.21
77227;BME280;66234;47.642;19.144;2023-05-14T00:14:33;100802.00;;;10.82;81.62
77227;BME280;66234;47.642;19.144;2023-05-14T00:17:36;100800.81;;;10.84;81.66
77227;BME280;66234;47.642;19.144;2023-05-14T00:20:39;100804.28;;;10.85;81.51
77227;BME280;66234;47.642;19.144;2023-05-14T00:23:42;100800.38;;;10.81;81.55
77227;BME280;66234;47.642;19.144;2023-05-14T00:26:44;100800.31;;;10.74;81.69
77227;BME280;66234;47.642;19.144;2023-05-14T00:29:47;100792.19;;;10.89;81.24
77227;BME280;66234;47.642;19.144;2023-05-14T00:32:50;100801.47;;;10.93;81.23
77227;BME280;66234;47.642;19.144;2023-05-14T00:35:52;100795.72;;;10.96;80.78
77227;BME280;66234;47.642;19.144;2023-05-14T00:38:55;100797.81;;;11.00;80.47
77227;BME280;66234;47.642;19.144;2023-05-14T00:41:57;100796.97;;;11.00;80.77
77227;BME280;66234;47.642;19.144;2023-05-14T00:45:00;100798.66;;;11.01;80.96
77227;BME280;66234;47.642;19.144;2023-05-14T00:48:03;100801.09;;;10.96;80.99
77227;BME280;66234;47.642;19.144;2023-05-14T00:51:06;100795.97;;;11.01;80.56
77227;BME280;66234;47.642;19.144;2023-05-14T00:54:10;100790.88;;;11.06;80.28
77227;BME280;66234;47.642;19.144;2023-05-14T00:57:12;100796.22;;;11.12;79.84
77227;BME280;66234;47.642;19.144;2023-05-14T01:00:15;100798.72;;;11.14;80.06
77227;BME280;66234;47.642;19.144;2023-05-14T01:03:18;100800.78;;;11.18;79.40
77227;BME280;66234;47.642;19.144;2023-05-14T01:06:35;100797.94;;;11.20;79.37
77227;BME280;66234;47.642;19.144;2023-05-14T01:09:52;100792.19;;;11.23;79.00
77227;BME280;66234;47.642;19.144;2023-05-14T01:16:18;100782.69;;;11.20;79.45
77227;BME280;66234;47.642;19.144;2023-05-14T01:19:32;100772.38;;;11.17;79.27
77227;BME280;66234;47.642;19.144;2023-05-14T01:22:34;100764.56;;;11.16;79.61
77227;BME280;66234;47.642;19.144;2023-05-14T01:25:37;100748.28;;;11.17;79.59
77227;BME280;66234;47.642;19.144;2023-05-14T01:28:40;100750.97;;;11.17;79.72
77227;BME280;66234;47.642;19.144;2023-05-14T01:31:45;100749.94;;;11.12;80.16
77227;BME280;66234;47.642;19.144;2023-05-14T01:34:49;100743.53;;;11.13;80.24
77227;BME280;66234;47.642;19.144;2023-05-14T01:37:55;100738.81;;;11.15;80.31
77227;BME280;66234;47.642;19.144;2023-05-14T01:40:59;100736.16;;;11.15;79.83
77227;BME280;66234;47.642;19.144;2023-05-14T01:44:03;100738.03;;;11.21;79.31
77227;BME280;66234;47.642;19.144;2023-05-14T01:47:05;100735.59;;;11.26;78.36
77227;BME280;66234;47.642;19.144;2023-05-14T01:50:08;100725.09;;;11.31;78.25
77227;BME280;66234;47.642;19.144;2023-05-14T01:53:11;100719.72;;;11.31;77.98
77227;BME280;66234;47.642;19.144;2023-05-14T01:56:13;100719.31;;;11.34;77.14
77227;BME280;66234;47.642;19.144;2023-05-14T01:59:16;100716.25;;;11.37;77.53
77227;BME280;66234;47.642;19.144;2023-05-14T02:02:19;100706.78;;;11.34;77.58
77227;BME280;66234;47.642;19.144;2023-05-14T02:05:21;100705.38;;;11.38;77.56
77227;BME280;66234;47.642;19.144;2023-05-14T02:08:24;100712.75;;;11.36;77.43
77227;BME280;66234;47.642;19.144;2023-05-14T02:11:26;100708.81;;;11.32;77.90
77227;BME280;66234;47.642;19.144;2023-05-14T02:14:29;100707.63;;;11.35;78.00
77227;BME280;66234;47.642;19.144;2023-05-14T02:17:32;100707.00;;;11.39;78.17
77227;BME280;66234;47.642;19.144;2023-05-14T02:20:34;100701.69;;;11.46;77.93
77227;BME280;66234;47.642;19.144;2023-05-14T02:23:37;100689.94;;;11.47;77.87
77227;BME280;66234;47.642;19.144;2023-05-14T02:26:43;100687.84;;;11.36;78.84
77227;BME280;66234;47.642;19.144;2023-05-14T02:29:46;100677.13;;;11.36;79.02
77227;BME280;66234;47.642;19.144;2023-05-14T02:32:48;100680.22;;;11.33;79.57
77227;BME280;66234;47.642;19.144;2023-05-14T02:35:51;100679.56;;;11.31;79.64
77227;BME280;66234;47.642;19.144;2023-05-14T02:38:54;100677.75;;;11.38;79.37
77227;BME280;66234;47.642;19.144;2023-05-14T02:41:56;100687.41;;;11.32;79.21
77227;BME280;66234;47.642;19.144;2023-05-14T02:44:59;100674.00;;;11.32;78.14
77227;BME280;66234;47.642;19.144;2023-05-14T02:48:01;100667.25;;;11.36;78.02
77227;BME280;66234;47.642;19.144;2023-05-14T02:51:05;100669.94;;;11.36;77.67
77227;BME280;66234;47.642;19.144;2023-05-14T02:54:07;100668.44;;;11.21;78.12
77227;BME280;66234;47.642;19.144;2023-05-14T02:57:10;100670.47;;;11.19;78.98
77227;BME280;66234;47.642;19.144;2023-05-14T03:00:13;100665.97;;;11.19;78.92
77227;BME280;66234;47.642;19.144;2023-05-14T03:03:18;100669.66;;;11.18;79.12
77227;BME280;66234;47.642;19.144;2023-05-14T03:06:21;100672.88;;;11.01;79.56
77227;BME280;66234;47.642;19.144;2023-05-14T03:09:23;100670.84;;;11.03;79.26
77227;BME280;66234;47.642;19.144;2023-05-14T03:12:26;100671.41;;;10.92;79.69
77227;BME280;66234;47.642;19.144;2023-05-14T03:15:29;100669.97;;;10.96;79.77
77227;BME280;66234;47.642;19.144;2023-05-14T03:18:31;100669.53;;;10.92;79.69
77227;BME280;66234;47.642;19.144;2023-05-14T03:21:36;100669.97;;;10.96;80.18
77227;BME280;66234;47.642;19.144;2023-05-14T03:24:38;100657.00;;;10.93;80.18
77227;BME280;66234;47.642;19.144;2023-05-14T03:27:41;100666.50;;;11.02;79.67
77227;BME280;66234;47.642;19.144;2023-05-14T03:30:44;100665.28;;;11.11;79.22
77227;BME280;66234;47.642;19.144;2023-05-14T03:33:47;100665.88;;;11.00;79.58
77227;BME280;66234;47.642;19.144;2023-05-14T03:36:49;100667.13;;;11.04;79.40
77227;BME280;66234;47.642;19.144;2023-05-14T03:39:52;100659.34;;;11.09;78.82
77227;BME280;66234;47.642;19.144;2023-05-14T03:42:54;100659.34;;;11.15;79.11
77227;BME280;66234;47.642;19.144;2023-05-14T03:45:57;100664.72;;;11.22;78.38
77227;BME280;66234;47.642;19.144;2023-05-14T03:49:00;100669.09;;;11.36;78.20
77227;BME280;66234;47.642;19.144;2023-05-14T03:52:03;100671.81;;;11.49;77.36
77227;BME280;66234;47.642;19.144;2023-05-14T03:55:06;100686.09;;;11.63;76.48
77227;BME280;66234;47.642;19.144;2023-05-14T03:58:08;100687.69;;;11.57;76.61
77227;BME280;66234;47.642;19.144;2023-05-14T04:01:15;100691.25;;;11.71;76.04
77227;BME280;66234;47.642;19.144;2023-05-14T04:04:18;100684.25;;;11.76;76.47
77227;BME280;66234;47.642;19.144;2023-05-14T04:07:20;100676.84;;;11.78;76.18
77227;BME280;66234;47.642;19.144;2023-05-14T04:10:23;100667.56;;;11.87;75.73
77227;BME280;66234;47.642;19.144;2023-05-14T04:13:27;100660.56;;;11.86;75.94
77227;BME280;66234;47.642;19.144;2023-05-14T04:16:30;100676.22;;;11.83;76.12
77227;BME280;66234;47.642;19.144;2023-05-14T04:19:32;100670.47;;;11.92;75.87
77227;BME280;66234;47.642;19.144;2023-05-14T04:22:35;100666.13;;;11.91;75.89
77227;BME280;66234;47.642;19.144;2023-05-14T04:25:38;100666.34;;;11.96;75.57
77227;BME280;66234;47.642;19.144;2023-05-14T04:28:40;100670.47;;;11.92;75.95
77227;BME280;66234;47.642;19.144;2023-05-14T04:31:43;100667.16;;;11.97;76.59
77227;BME280;66234;47.642;19.144;2023-05-14T04:34:46;100662.84;;;11.89;76.57
77227;BME280;66234;47.642;19.144;2023-05-14T04:37:48;100649.63;;;12.01;75.86
77227;BME280;66234;47.642;19.144;2023-05-14T04:40:51;100650.06;;;11.85;77.25
77227;BME280;66234;47.642;19.144;2023-05-14T04:43:55;100646.34;;;11.92;76.75
77227;BME280;66234;47.642;19.144;2023-05-14T04:46:58;100649.84;;;11.73;77.99
77227;BME280;66234;47.642;19.144;2023-05-14T04:50:00;100650.88;;;11.85;77.65
77227;BME280;66234;47.642;19.144;2023-05-14T04:53:03;100654.81;;;11.89;77.16
77227;BME280;66234;47.642;19.144;2023-05-14T04:56:06;100635.63;;;11.92;76.84
77227;BME280;66234;47.642;19.144;2023-05-14T04:59:08;100640.75;;;12.07;75.90
77227;BME280;66234;47.642;19.144;2023-05-14T05:02:11;100642.00;;;12.04;75.86
77227;BME280;66234;47.642;19.144;2023-05-14T05:05:14;100641.38;;;12.09;75.73
77227;BME280;66234;47.642;19.144;2023-05-14T05:08:16;100644.50;;;12.12;75.53
77227;BME280;66234;47.642;19.144;2023-05-14T05:11:19;100640.97;;;12.05;75.79
77227;BME280;66234;47.642;19.144;2023-05-14T05:14:22;100639.94;;;12.00;76.36
77227;BME280;66234;47.642;19.144;2023-05-14T05:17:24;100635.44;;;12.00;76.50
77227;BME280;66234;47.642;19.144;2023-05-14T05:20:27;100632.34;;;12.03;76.43
77227;BME280;66234;47.642;19.144;2023-05-14T05:23:30;100633.34;;;12.15;75.52
77227;BME280;66234;47.642;19.144;2023-05-14T05:26:32;100621.63;;;12.03;76.20
77227;BME280;66234;47.642;19.144;2023-05-14T05:29:37;100625.72;;;12.12;76.32
77227;BME280;66234;47.642;19.144;2023-05-14T05:32:40;100622.41;;;12.10;76.36
77227;BME280;66234;47.642;19.144;2023-05-14T05:35:43;100628.19;;;12.20;75.92
77227;BME280;66234;47.642;19.144;2023-05-14T05:38:45;100634.59;;;12.06;76.19
77227;BME280;66234;47.642;19.144;2023-05-14T05:41:48;100638.91;;;12.07;76.00
77227;BME280;66234;47.642;19.144;2023-05-14T05:44:50;100629.03;;;12.01;76.26
77227;BME280;66234;47.642;19.144;2023-05-14T05:47:53;100637.91;;;11.95;76.12
77227;BME280;66234;47.642;19.144;2023-05-14T05:50:55;100635.00;;;12.03;76.58
77227;BME280;66234;47.642;19.144;2023-05-14T05:53:58;100624.25;;;12.16;76.10
77227;BME280;66234;47.642;19.144;2023-05-14T05:57:01;100629.41;;;12.31;75.61
77227;BME280;66234;47.642;19.144;2023-05-14T06:00:04;100626.47;;;12.45;75.33
77227;BME280;66234;47.642;19.144;2023-05-14T06:03:16;100629.19;;;12.32;73.57
77227;BME280;66234;47.642;19.144;2023-05-14T06:06:19;100625.19;;;12.61;74.71
77227;BME280;66234;47.642;19.144;2023-05-14T06:09:21;100630.34;;;12.69;72.14
77227;BME280;66234;47.642;19.144;2023-05-14T06:12:24;100626.47;;;12.58;72.77
77227;BME280;66234;47.642;19.144;2023-05-14T06:15:27;100626.59;;;12.76;71.66
77227;BME280;66234;47.642;19.144;2023-05-14T06:18:29;100627.22;;;12.78;71.15
77227;BME280;66234;47.642;19.144;2023-05-14T06:21:32;100633.78;;;12.82;71.37
77227;BME280;66234;47.642;19.144;2023-05-14T06:24:34;100635.66;;;12.82;71.94
77227;BME280;66234;47.642;19.144;2023-05-14T06:27:37;100637.53;;;12.81;72.50
77227;BME280;66234;47.642;19.144;2023-05-14T06:30:39;100634.00;;;12.81;72.84
77227;BME280;66234;47.642;19.144;2023-05-14T06:33:43;100639.53;;;12.99;70.40
77227;BME280;66234;47.642;19.144;2023-05-14T06:36:46;100639.13;;;12.95;70.64
77227;BME280;66234;47.642;19.144;2023-05-14T06:39:48;100633.13;;;12.93;70.37
77227;BME280;66234;47.642;19.144;2023-05-14T06:42:51;100632.97;;;12.88;70.82
77227;BME280;66234;47.642;19.144;2023-05-14T06:45:54;100632.13;;;12.94;71.17
77227;BME280;66234;47.642;19.144;2023-05-14T06:48:56;100631.50;;;12.86;72.62
77227;BME280;66234;47.642;19.144;2023-05-14T06:52:01;100624.03;;;13.01;71.61
77227;BME280;66234;47.642;19.144;2023-05-14T06:55:04;100615.97;;;13.07;70.73
77227;BME280;66234;47.642;19.144;2023-05-14T06:58:07;100617.00;;;13.06;71.55
77227;BME280;66234;47.642;19.144;2023-05-14T07:01:10;100606.03;;;13.14;70.83
77227;BME280;66234;47.642;19.144;2023-05-14T07:04:12;100611.19;;;13.16;71.67
77227;BME280;66234;47.642;19.144;2023-05-14T07:07:15;100601.94;;;13.05;72.01
77227;BME280;66234;47.642;19.144;2023-05-14T07:10:22;100597.16;;;13.14;71.78
77227;BME280;66234;47.642;19.144;2023-05-14T07:13:25;100599.38;;;13.23;72.27
77227;BME280;66234;47.642;19.144;2023-05-14T07:16:30;100593.78;;;13.25;71.26
77227;BME280;66234;47.642;19.144;2023-05-14T07:19:32;100591.59;;;13.40;70.31
77227;BME280;66234;47.642;19.144;2023-05-14T07:22:35;100590.59;;;13.66;70.21
77227;BME280;66234;47.642;19.144;2023-05-14T07:25:38;100584.41;;;13.90;68.25
77227;BME280;66234;47.642;19.144;2023-05-14T07:28:41;100579.16;;;13.77;69.94
77227;BME280;66234;47.642;19.144;2023-05-14T07:31:43;100577.44;;;13.82;68.72
77227;BME280;66234;47.642;19.144;2023-05-14T07:34:46;100577.69;;;13.99;67.81
77227;BME280;66234;47.642;19.144;2023-05-14T07:37:48;100570.44;;;14.24;67.20
77227;BME280;66234;47.642;19.144;2023-05-14T07:40:51;100558.19;;;14.28;67.28
77227;BME280;66234;47.642;19.144;2023-05-14T07:43:54;100558.34;;;14.33;66.49
77227;BME280;66234;47.642;19.144;2023-05-14T07:46:56;100553.44;;;14.23;67.69
77227;BME280;66234;47.642;19.144;2023-05-14T07:49:59;100560.53;;;14.42;67.72
77227;BME280;66234;47.642;19.144;2023-05-14T07:53:01;100568.47;;;14.55;66.61
77227;BME280;66234;47.642;19.144;2023-05-14T07:56:04;100561.78;;;14.58;67.06
77227;BME280;66234;47.642;19.144;2023-05-14T07:59:07;100564.63;;;14.63;66.10
77227;BME280;66234;47.642;19.144;2023-05-14T08:02:09;100562.63;;;14.58;66.96
77227;BME280;66234;47.642;19.144;2023-05-14T08:05:14;100563.84;;;14.92;65.64
77227;BME280;66234;47.642;19.144;2023-05-14T08:08:17;100551.53;;;15.14;65.57
77227;BME280;66234;47.642;19.144;2023-05-14T08:11:19;100547.69;;;15.22;65.08
77227;BME280;66234;47.642;19.144;2023-05-14T08:14:23;100546.22;;;15.08;65.97
77227;BME280;66234;47.642;19.144;2023-05-14T08:17:26;100538.84;;;15.15;65.65
77227;BME280;66234;47.642;19.144;2023-05-14T08:20:29;100538.50;;;15.11;65.14
77227;BME280;66234;47.642;19.144;2023-05-14T08:23:32;100534.31;;;15.15;64.91
77227;BME280;66234;47.642;19.144;2023-05-14T08:26:34;100523.63;;;15.09;65.03
77227;BME280;66234;47.642;19.144;2023-05-14T08:29:37;100523.47;;;15.04;65.71
77227;BME280;66234;47.642;19.144;2023-05-14T08:32:40;100533.00;;;15.06;65.62
77227;BME280;66234;47.642;19.144;2023-05-14T08:35:43;100528.00;;;15.21;65.69
77227;BME280;66234;47.642;19.144;2023-05-14T08:38:46;100526.78;;;15.06;66.70
77227;BME280;66234;47.642;19.144;2023-05-14T08:41:50;100525.84;;;15.12;68.17
77227;BME280;66234;47.642;19.144;2023-05-14T08:45:01;100523.59;;;14.97;68.38
77227;BME280;66234;47.642;19.144;2023-05-14T08:48:06;100517.56;;;14.83;69.35
77227;BME280;66234;47.642;19.144;2023-05-14T08:51:11;100516.97;;;14.81;69.00
77227;BME280;66234;47.642;19.144;2023-05-14T08:54:15;100512.69;;;14.92;67.25
77227;BME280;66234;47.642;19.144;2023-05-14T08:57:22;100507.00;;;14.82;69.80
77227;BME280;66234;47.642;19.144;2023-05-14T09:00:26;100499.59;;;14.66;70.23
77227;BME280;66234;47.642;19.144;2023-05-14T09:03:29;100498.38;;;14.80;70.71
77227;BME280;66234;47.642;19.144;2023-05-14T09:06:36;100498.38;;;14.92;71.28
77227;BME280;66234;47.642;19.144;2023-05-14T09:09:41;100499.59;;;14.96;71.47
77227;BME280;66234;47.642;19.144;2023-05-14T09:12:46;100501.63;;;14.82;71.75
77227;BME280;66234;47.642;19.144;2023-05-14T09:15:49;100499.69;;;14.89;71.50
77227;BME280;66234;47.642;19.144;2023-05-14T09:18:53;100500.50;;;14.90;71.77
77227;BME280;66234;47.642;19.144;2023-05-14T09:21:56;100504.31;;;14.82;72.94
77227;BME280;66234;47.642;19.144;2023-05-14T09:25:02;100490.78;;;14.88;71.19
77227;BME280;66234;47.642;19.144;2023-05-14T09:28:07;100489.28;;;14.93;70.75
77227;BME280;66234;47.642;19.144;2023-05-14T09:31:10;100484.59;;;14.88;70.53
77227;BME280;66234;47.642;19.144;2023-05-14T09:34:22;100474.47;;;14.83;72.01
77227;BME280;66234;47.642;19.144;2023-05-14T09:37:27;100478.91;;;14.78;71.41
77227;BME280;66234;47.642;19.144;2023-05-14T09:40:30;100465.69;;;14.76;71.70
77227;BME280;66234;47.642;19.144;2023-05-14T09:43:32;100455.97;;;14.75;71.93
77227;BME280;66234;47.642;19.144;2023-05-14T09:46:35;100456.53;;;14.77;71.88
77227;BME280;66234;47.642;19.144;2023-05-14T09:49:39;100457.84;;;14.75;72.71
77227;BME280;66234;47.642;19.144;2023-05-14T09:52:43;100471.69;;;14.60;73.96
77227;BME280;66234;47.642;19.144;2023-05-14T09:55:46;100462.59;;;14.43;74.79
77227;BME280;66234;47.642;19.144;2023-05-14T09:58:48;100457.44;;;14.42;75.88
77227;BME280;66234;47.642;19.144;2023-05-14T10:01:51;100456.84;;;14.58;75.35
77227;BME280;66234;47.642;19.144;2023-05-14T10:04:58;100463.28;;;14.57;75.78
77227;BME280;66234;47.642;19.144;2023-05-14T10:08:08;100450.63;;;14.57;76.51
77227;BME280;66234;47.642;19.144;2023-05-14T10:11:13;100452.53;;;14.68;76.09
77227;BME280;66234;47.642;19.144;2023-05-14T10:14:23;100447.25;;;14.62;75.84
77227;BME280;66234;47.642;19.144;2023-05-14T10:17:30;100435.31;;;14.58;76.36
77227;BME280;66234;47.642;19.144;2023-05-14T10:20:33;100432.38;;;14.59;76.63
77227;BME280;66234;47.642;19.144;2023-05-14T10:23:37;100419.31;;;14.74;76.24
77227;BME280;66234;47.642;19.144;2023-05-14T10:26:41;100400.06;;;14.89;74.70
77227;BME280;66234;47.642;19.144;2023-05-14T10:29:50;100389.09;;;15.14;74.09
77227;BME280;66234;47.642;19.144;2023-05-14T10:33:05;100384.53;;;15.37;72.89
77227;BME280;66234;47.642;19.144;2023-05-14T10:36:08;100370.28;;;15.48;73.24
77227;BME280;66234;47.642;19.144;2023-05-14T10:39:11;100374.13;;;15.52;73.45
77227;BME280;66234;47.642;19.144;2023-05-14T10:42:33;100377.06;;;15.51;72.78
77227;BME280;66234;47.642;19.144;2023-05-14T10:45:37;100397.66;;;15.34;70.34
77227;BME280;66234;47.642;19.144;2023-05-14T10:48:42;100400.31;;;15.11;71.77
77227;BME280;66234;47.642;19.144;2023-05-14T10:51:47;100388.50;;;15.12;73.12
77227;BME280;66234;47.642;19.144;2023-05-14T10:54:55;100384.84;;;14.95;72.63
77227;BME280;66234;47.642;19.144;2023-05-14T10:57:58;100383.91;;;14.89;72.43
77227;BME280;66234;47.642;19.144;2023-05-14T11:01:03;100377.59;;;14.95;73.78
77227;BME280;66234;47.642;19.144;2023-05-14T11:04:07;100377.22;;;14.92;74.52
77227;BME280;66234;47.642;19.144;2023-05-14T11:07:11;100373.84;;;14.84;74.74
77227;BME280;66234;47.642;19.144;2023-05-14T11:10:15;100373.59;;;14.86;75.70
77227;BME280;66234;47.642;19.144;2023-05-14T11:13:18;100382.16;;;14.83;75.82
77227;BME280;66234;47.642;19.144;2023-05-14T11:16:21;100375.94;;;14.82;77.25
77227;BME280;66234;47.642;19.144;2023-05-14T11:19:25;100368.09;;;14.81;77.08
77227;BME280;66234;47.642;19.144;2023-05-14T11:22:27;100376.91;;;14.88;77.78
77227;BME280;66234;47.642;19.144;2023-05-14T11:25:30;100362.38;;;14.89;77.49
77227;BME280;66234;47.642;19.144;2023-05-14T11:28:33;100353.34;;;14.95;77.66
77227;BME280;66234;47.642;19.144;2023-05-14T11:31:35;100348.81;;;14.96;77.95
77227;BME280;66234;47.642;19.144;2023-05-14T11:34:38;100357.91;;;14.83;78.87
77227;BME280;66234;47.642;19.144;2023-05-14T11:37:41;100361.06;;;14.80;79.14
77227;BME280;66234;47.642;19.144;2023-05-14T11:41:04;100359.22;;;14.92;77.76
77227;BME280;66234;47.642;19.144;2023-05-14T11:44:09;100365.53;;;14.86;77.88
77227;BME280;66234;47.642;19.144;2023-05-14T11:47:12;100359.78;;;14.71;79.95
77227;BME280;66234;47.642;19.144;2023-05-14T11:50:15;100352.13;;;14.56;79.26
77227;BME280;66234;47.642;19.144;2023-05-14T11:53:25;100355.56;;;14.75;79.64
77227;BME280;66234;47.642;19.144;2023-05-14T11:56:28;100346.91;;;14.32;79.15
77227;BME280;66234;47.642;19.144;2023-05-14T11:59:31;100341.91;;;14.47;78.52
77227;BME280;66234;47.642;19.144;2023-05-14T12:02:34;100342.84;;;14.41;80.41
77227;BME280;66234;47.642;19.144;2023-05-14T12:05:38;100342.16;;;14.45;79.38
77227;BME280;66234;47.642;19.144;2023-05-14T12:08:41;100341.22;;;14.22;79.62
77227;BME280;66234;47.642;19.144;2023-05-14T12:11:44;100333.91;;;14.11;79.77
77227;BME280;66234;47.642;19.144;2023-05-14T12:14:49;100334.34;;;13.96;81.08
77227;BME280;66234;47.642;19.144;2023-05-14T12:17:52;100331.44;;;14.09;80.04
77227;BME280;66234;47.642;19.144;2023-05-14T12:21:00;100324.91;;;14.05;80.44
77227;BME280;66234;47.642;19.144;2023-05-14T12:24:17;100314.84;;;14.01;80.91
77227;BME280;66234;47.642;19.144;2023-05-14T12:27:26;100310.78;;;14.10;81.24
77227;BME280;66234;47.642;19.144;2023-05-14T12:30:36;100296.13;;;14.24;80.02
77227;BME280;66234;47.642;19.144;2023-05-14T12:33:39;100301.31;;;14.19;81.14
77227;BME280;66234;47.642;19.144;2023-05-14T12:36:44;100297.75;;;14.25;80.74
77227;BME280;66234;47.642;19.144;2023-05-14T12:39:47;100297.47;;;14.15;81.26
77227;BME280;66234;47.642;19.144;2023-05-14T12:42:50;100292.63;;;14.05;80.01
77227;BME280;66234;47.642;19.144;2023-05-14T12:45:54;100298.81;;;14.24;80.58
77227;BME280;66234;47.642;19.144;2023-05-14T12:48:57;100290.22;;;14.15;81.48
77227;BME280;66234;47.642;19.144;2023-05-14T12:52:00;100296.50;;;14.09;83.37
77227;BME280;66234;47.642;19.144;2023-05-14T12:55:23;100298.09;;;13.99;81.31
77227;BME280;66234;47.642;19.144;2023-05-14T12:58:25;100279.38;;;13.92;83.07
77227;BME280;66234;47.642;19.144;2023-05-14T13:01:28;100274.22;;;13.91;83.38
77227;BME280;66234;47.642;19.144;2023-05-14T13:04:31;100261.91;;;13.83;83.83
77227;BME280;66234;47.642;19.144;2023-05-14T13:07:34;100249.56;;;13.94;82.28
77227;BME280;66234;47.642;19.144;2023-05-14T13:10:37;100250.63;;;13.93;82.57
77227;BME280;66234;47.642;19.144;2023-05-14T13:13:39;100244.88;;;13.89;82.69
77227;BME280;66234;47.642;19.144;2023-05-14T13:16:42;100236.59;;;13.91;82.90
77227;BME280;66234;47.642;19.144;2023-05-14T13:19:45;100241.47;;;13.82;85.02
77227;BME280;66234;47.642;19.144;2023-05-14T13:22:47;100238.25;;;13.62;85.62
77227;BME280;66234;47.642;19.144;2023-05-14T13:25:50;100234.28;;;13.65;84.85
77227;BME280;66234;47.642;19.144;2023-05-14T13:28:53;100231.03;;;13.74;85.26
77227;BME280;66234;47.642;19.144;2023-05-14T13:31:55;100226.72;;;13.73;85.31
77227;BME280;66234;47.642;19.144;2023-05-14T13:34:57;100217.22;;;13.71;86.07
77227;BME280;66234;47.642;19.144;2023-05-14T13:38:00;100216.06;;;13.67;85.97
77227;BME280;66234;47.642;19.144;2023-05-14T13:41:03;100209.63;;;13.68;86.86
77227;BME280;66234;47.642;19.144;2023-05-14T13:44:06;100207.81;;;13.80;87.87
77227;BME280;66234;47.642;19.144;2023-05-14T13:47:08;100201.47;;;13.74;87.73
77227;BME280;66234;47.642;19.144;2023-05-14T13:50:11;100205.38;;;13.78;88.44
77227;BME280;66234;47.642;19.144;2023-05-14T13:53:14;100190.03;;;13.79;88.34
77227;BME280;66234;47.642;19.144;2023-05-14T13:56:17;100182.72;;;13.86;88.24
77227;BME280;66234;47.642;19.144;2023-05-14T13:59:20;100185.00;;;13.71;89.02
77227;BME280;66234;47.642;19.144;2023-05-14T14:02:23;100167.00;;;13.71;89.96
77227;BME280;66234;47.642;19.144;2023-05-14T14:05:25;100177.44;;;13.79;89.52
77227;BME280;66234;47.642;19.144;2023-05-14T14:08:29;100169.97;;;13.81;89.37
77227;BME280;66234;47.642;19.144;2023-05-14T14:11:35;100179.28;;;13.79;88.76
77227;BME280;66234;47.642;19.144;2023-05-14T14:14:39;100191.50;;;13.63;89.72
77227;BME280;66234;47.642;19.144;2023-05-14T14:17:42;100176.00;;;13.65;89.90
77227;BME280;66234;47.642;19.144;2023-05-14T14:20:45;100179.59;;;13.59;89.69
77227;BME280;66234;47.642;19.144;2023-05-14T14:23:48;100170.06;;;13.45;90.35
77227;BME280;66234;47.642;19.144;2023-05-14T14:26:51;100174.94;;;13.37;90.03
77227;BME280;66234;47.642;19.144;2023-05-14T14:29:53;100168.75;;;13.36;90.70
77227;BME280;66234;47.642;19.144;2023-05-14T14:32:58;100167.31;;;13.34;90.77
77227;BME280;66234;47.642;19.144;2023-05-14T14:36:04;100169.13;;;13.21;89.02
77227;BME280;66234;47.642;19.144;2023-05-14T14:39:07;100164.31;;;13.12;90.05
77227;BME280;66234;47.642;19.144;2023-05-14T14:42:09;100168.88;;;13.11;90.38
77227;BME280;66234;47.642;19.144;2023-05-14T14:45:12;100164.97;;;13.07;91.61
77227;BME280;66234;47.642;19.144;2023-05-14T14:48:30;100158.88;;;13.00;91.64
77227;BME280;66234;47.642;19.144;2023-05-14T14:51:35;100155.91;;;13.08;91.12
77227;BME280;66234;47.642;19.144;2023-05-14T14:54:37;100146.41;;;13.06;91.55
77227;BME280;66234;47.642;19.144;2023-05-14T14:57:40;100152.34;;;13.26;90.39
77227;BME280;66234;47.642;19.144;2023-05-14T15:00:42;100147.75;;;13.15;90.83
77227;BME280;66234;47.642;19.144;2023-05-14T15:03:45;100150.06;;;13.11;91.48
77227;BME280;66234;47.642;19.144;2023-05-14T15:06:49;100147.28;;;13.18;91.51
77227;BME280;66234;47.642;19.144;2023-05-14T15:09:52;100128.06;;;13.21;91.12
77227;BME280;66234;47.642;19.144;2023-05-14T15:12:58;100124.41;;;13.15;90.81
77227;BME280;66234;47.642;19.144;2023-05-14T15:16:01;100113.97;;;13.07;91.50
77227;BME280;66234;47.642;19.144;2023-05-14T15:19:03;100114.34;;;13.11;91.48
77227;BME280;66234;47.642;19.144;2023-05-14T15:22:06;100123.56;;;13.15;91.14
77227;BME280;66234;47.642;19.144;2023-05-14T15:25:09;100117.09;;;13.23;91.19
77227;BME280;66234;47.642;19.144;2023-05-14T15:28:12;100107.00;;;13.18;91.31
77227;BME280;66234;47.642;19.144;2023-05-14T15:31:15;100106.16;;;13.06;91.19
77227;BME280;66234;47.642;19.144;2023-05-14T15:34:18;100103.25;;;13.07;91.09
77227;BME280;66234;47.642;19.144;2023-05-14T15:37:23;100100.84;;;13.17;91.01
77227;BME280;66234;47.642;19.144;2023-05-14T15:40:26;100095.72;;;13.16;91.92
77227;BME280;66234;47.642;19.144;2023-05-14T15:43:29;100107.34;;;13.10;90.89
77227;BME280;66234;47.642;19.144;2023-05-14T15:46:31;100097.03;;;12.89;91.50
77227;BME280;66234;47.642;19.144;2023-05-14T15:49:34;100096.94;;;12.84;91.52
77227;BME280;66234;47.642;19.144;2023-05-14T15:52:37;100105.50;;;12.74;91.92